createdAt,value
2023-04-28T00:00:09.192Z,0.00
2023-04-28T00:01:09.187Z,0.00
2023-04-28T00:02:09.160Z,0.00
2023-04-28T00:03:09.214Z,0.00
2023-04-28T00:04:09.570Z,0.00
2023-04-28T00:05:09.169Z,0.00
2023-04-28T00:06:09.098Z,0.00
2023-04-28T00:07:09.113Z,0.00
2023-04-28T00:08:09.076Z,0.00
2023-04-28T00:09:09.061Z,0.00
2023-04-28T00:10:09.053Z,0.00
2023-04-28T00:11:09.040Z,0.00
2023-04-28T00:12:09.077Z,0.00
2023-04-28T00:13:09.025Z,0.00
2023-04-28T00:14:08.994Z,0.00
2023-04-28T00:15:08.986Z,0.00
2023-04-28T00:16:09.006Z,0.00
2023-04-28T00:17:09.007Z,0.00
2023-04-28T00:18:09.010Z,0.00
2023-04-28T00:19:09.237Z,0.00
2023-04-28T00:20:08.943Z,0.00
2023-04-28T00:21:08.916Z,0.00
2023-04-28T00:22:08.899Z,0.00
2023-04-28T00:23:08.908Z,0.00
2023-04-28T00:24:08.888Z,0.00
2023-04-28T00:25:08.869Z,0.00
2023-04-28T00:26:08.864Z,0.00
2023-04-28T00:27:08.838Z,0.00
2023-04-28T00:28:08.862Z,0.00
2023-04-28T00:29:08.816Z,0.00
2023-04-28T00:30:08.802Z,0.00
2023-04-28T00:31:08.879Z,0.00
2023-04-28T00:32:08.843Z,0.00
2023-04-28T00:33:08.780Z,0.00
2023-04-28T00:34:08.785Z,0.00
2023-04-28T00:35:08.741Z,0.00
2023-04-28T00:36:08.716Z,0.00
2023-04-28T00:37:08.705Z,0.00
2023-04-28T00:38:08.685Z,0.00
2023-04-28T00:39:08.696Z,0.00
2023-04-28T00:40:08.693Z,0.00
2023-04-28T00:41:08.657Z,0.00
2023-04-28T00:42:08.642Z,0.00
2023-04-28T00:43:08.632Z,0.00
2023-04-28T00:44:08.635Z,0.00
2023-04-28T00:45:08.602Z,0.00
2023-04-28T00:46:08.667Z,0.00
2023-04-28T00:47:08.573Z,0.00
2023-04-28T00:48:08.607Z,0.00
2023-04-28T00:49:08.552Z,0.00
2023-04-28T00:50:08.542Z,0.00
2023-04-28T00:51:08.521Z,0.00
2023-04-28T00:52:08.546Z,0.00
2023-04-28T00:53:08.521Z,0.00
2023-04-28T00:54:08.483Z,0.00
2023-04-28T00:55:08.474Z,0.00
2023-04-28T00:56:08.481Z,0.00
2023-04-28T00:57:08.455Z,0.00
2023-04-28T00:58:08.456Z,0.00
2023-04-28T00:59:08.429Z,0.00
2023-04-28T01:01:07.318Z,0.00
2023-04-28T01:02:08.353Z,0.00
2023-04-28T01:03:08.456Z,0.00
2023-04-28T01:04:08.637Z,0.00
2023-04-28T01:05:08.241Z,0.00
2023-04-28T01:06:08.324Z,0.00
2023-04-28T01:07:08.280Z,0.00
2023-04-28T01:08:08.286Z,0.00
2023-04-28T01:09:08.204Z,0.00
2023-04-28T01:10:08.227Z,0.00
2023-04-28T01:11:08.166Z,0.00
2023-04-28T01:12:08.166Z,0.00
2023-04-28T01:13:08.139Z,0.00
2023-04-28T01:14:08.144Z,0.00
2023-04-28T01:15:08.134Z,0.00
2023-04-28T01:16:08.162Z,0.00
2023-04-28T01:17:08.083Z,0.00
2023-04-28T01:18:08.102Z,0.00
2023-04-28T01:19:08.058Z,0.00
2023-04-28T01:20:08.099Z,0.00
2023-04-28T01:21:08.072Z,0.00
2023-04-28T01:22:08.021Z,0.00
2023-04-28T01:23:08.010Z,0.00
2023-04-28T01:24:08.013Z,0.00
2023-04-28T01:25:07.994Z,0.00
2023-04-28T01:26:08.036Z,0.00
2023-04-28T01:27:07.958Z,0.00
2023-04-28T01:28:07.967Z,0.00
2023-04-28T01:29:07.983Z,0.00
2023-04-28T01:30:07.936Z,0.00
2023-04-28T01:31:07.949Z,0.00
2023-04-28T01:32:07.907Z,0.00
2023-04-28T01:33:07.916Z,0.00
2023-04-28T01:34:07.892Z,0.00
2023-04-28T01:35:07.892Z,0.00
2023-04-28T01:36:07.865Z,0.00
2023-04-28T01:37:07.856Z,0.00
2023-04-28T01:38:07.815Z,0.00
2023-04-28T01:39:07.812Z,0.00
2023-04-28T01:40:07.830Z,0.00
2023-04-28T01:41:07.805Z,0.00
2023-04-28T01:42:07.775Z,0.00
2023-04-28T01:43:07.767Z,0.00
2023-04-28T01:44:07.791Z,0.00
2023-04-28T01:45:07.733Z,0.00
2023-04-28T01:46:07.814Z,0.00
2023-04-28T01:47:07.721Z,0.00
2023-04-28T01:48:07.804Z,0.00
2023-04-28T01:49:07.693Z,0.00
2023-04-28T01:50:07.693Z,0.00
2023-04-28T01:51:07.654Z,0.00
2023-04-28T01:52:07.676Z,0.00
2023-04-28T01:53:07.670Z,0.00
2023-04-28T01:54:07.666Z,0.00
2023-04-28T01:55:07.660Z,0.00
2023-04-28T01:56:07.633Z,0.00
2023-04-28T01:57:07.599Z,0.00
2023-04-28T01:58:07.597Z,0.00
2023-04-28T01:59:07.590Z,0.00
2023-04-28T02:00:07.550Z,0.00
2023-04-28T02:01:07.582Z,0.00
2023-04-28T02:02:07.540Z,0.00
2023-04-28T02:03:07.776Z,0.00
2023-04-28T02:04:07.587Z,0.00
2023-04-28T02:05:07.506Z,0.00
2023-04-28T02:06:07.482Z,0.00
2023-04-28T02:07:07.463Z,0.00
2023-04-28T02:08:07.452Z,0.00
2023-04-28T02:09:07.415Z,0.00
2023-04-28T02:10:07.427Z,0.00
2023-04-28T02:11:07.416Z,0.00
2023-04-28T02:12:07.429Z,0.00
2023-04-28T02:13:07.376Z,0.00
2023-04-28T02:14:07.461Z,0.00
2023-04-28T02:15:07.356Z,0.00
2023-04-28T02:16:08.015Z,0.00
2023-04-28T02:17:07.377Z,0.00
2023-04-28T02:18:07.361Z,0.00
2023-04-28T02:19:07.297Z,0.00
2023-04-28T02:20:07.276Z,0.00
2023-04-28T02:21:07.271Z,0.00
2023-04-28T02:22:07.252Z,0.00
2023-04-28T02:23:07.267Z,0.00
2023-04-28T02:24:07.220Z,0.00
2023-04-28T02:25:07.215Z,0.00
2023-04-28T02:26:07.191Z,0.00
2023-04-28T02:27:07.220Z,0.00
2023-04-28T02:28:07.201Z,0.00
2023-04-28T02:29:07.174Z,0.00
2023-04-28T02:30:07.159Z,0.00
2023-04-28T02:31:07.169Z,0.00
2023-04-28T02:32:07.147Z,0.00
2023-04-28T02:33:07.193Z,0.00
2023-04-28T02:34:07.170Z,0.00
2023-04-28T02:35:07.081Z,0.00
2023-04-28T02:36:07.081Z,0.00
2023-04-28T02:37:07.072Z,0.00
2023-04-28T02:38:07.070Z,0.00
2023-04-28T02:39:07.041Z,0.00
2023-04-28T02:40:07.042Z,0.00
2023-04-28T02:41:07.026Z,0.00
2023-04-28T02:42:07.007Z,0.00
2023-04-28T02:43:07.000Z,0.00
2023-04-28T02:44:06.987Z,0.00
2023-04-28T02:45:06.975Z,0.00
2023-04-28T02:46:06.969Z,0.00
2023-04-28T02:47:07.027Z,0.00
2023-04-28T02:48:06.974Z,0.00
2023-04-28T02:49:06.974Z,0.00
2023-04-28T02:50:06.888Z,0.00
2023-04-28T02:51:06.882Z,0.00
2023-04-28T02:52:06.888Z,0.00
2023-04-28T02:53:06.880Z,0.00
2023-04-28T02:54:06.863Z,0.00
2023-04-28T02:55:06.844Z,0.00
2023-04-28T02:56:06.810Z,0.00
2023-04-28T02:57:06.838Z,0.00
2023-04-28T02:58:06.793Z,0.00
2023-04-28T02:59:06.805Z,0.00
2023-04-28T03:00:06.775Z,0.00
2023-04-28T03:01:06.793Z,0.00
2023-04-28T03:02:06.736Z,0.00
2023-04-28T03:03:06.872Z,0.00
2023-04-28T03:04:06.908Z,0.00
2023-04-28T03:05:06.780Z,0.00
2023-04-28T03:06:06.709Z,0.00
2023-04-28T03:07:06.770Z,0.00
2023-04-28T03:08:06.821Z,0.00
2023-04-28T03:09:06.669Z,0.00
2023-04-28T03:10:06.629Z,0.00
2023-04-28T03:11:06.625Z,0.00
2023-04-28T03:12:06.598Z,0.00
2023-04-28T03:13:06.597Z,0.00
2023-04-28T03:14:06.593Z,0.00
2023-04-28T03:15:06.581Z,0.00
2023-04-28T03:16:06.597Z,0.00
2023-04-28T03:17:06.546Z,0.00
2023-04-28T03:18:06.569Z,0.00
2023-04-28T03:19:06.516Z,0.00
2023-04-28T03:20:06.516Z,0.00
2023-04-28T03:21:06.506Z,0.00
2023-04-28T03:22:06.478Z,0.00
2023-04-28T03:23:06.487Z,0.00
2023-04-28T03:24:06.474Z,0.00
2023-04-28T03:25:06.443Z,0.00
2023-04-28T03:26:06.444Z,0.00
2023-04-28T03:27:06.411Z,0.00
2023-04-28T03:28:06.400Z,0.00
2023-04-28T03:29:06.410Z,0.00
2023-04-28T03:30:06.374Z,0.00
2023-04-28T03:31:06.437Z,0.00
2023-04-28T03:32:06.366Z,0.00
2023-04-28T03:33:06.364Z,0.00
2023-04-28T03:34:06.325Z,0.00
2023-04-28T03:35:06.310Z,0.00
2023-04-28T03:36:06.423Z,0.00
2023-04-28T03:37:06.296Z,0.00
2023-04-28T03:38:06.260Z,0.00
2023-04-28T03:39:06.303Z,0.00
2023-04-28T03:40:06.291Z,0.00
2023-04-28T03:41:06.223Z,0.00
2023-04-28T03:42:06.259Z,0.00
2023-04-28T03:43:06.263Z,0.00
2023-04-28T03:44:06.198Z,0.00
2023-04-28T03:45:06.174Z,0.00
2023-04-28T03:46:06.285Z,0.00
2023-04-28T03:47:06.165Z,0.00
2023-04-28T03:48:06.155Z,0.00
2023-04-28T03:49:06.142Z,0.00
2023-04-28T03:50:06.127Z,0.00
2023-04-28T03:51:06.096Z,0.00
2023-04-28T03:52:06.084Z,0.00
2023-04-28T03:53:06.077Z,0.00
2023-04-28T03:54:06.064Z,0.00
2023-04-28T03:55:06.084Z,0.00
2023-04-28T03:56:06.038Z,0.00
2023-04-28T03:57:06.029Z,0.00
2023-04-28T03:58:06.015Z,0.00
2023-04-28T03:59:06.085Z,0.00
2023-04-28T04:00:06.005Z,0.00
2023-04-28T04:01:05.989Z,0.00
2023-04-28T04:02:05.990Z,0.00
2023-04-28T04:03:06.036Z,0.00
2023-04-28T04:04:06.131Z,0.00
2023-04-28T04:05:06.042Z,0.00
2023-04-28T04:06:05.901Z,0.00
2023-04-28T04:07:05.923Z,0.00
2023-04-28T04:08:05.891Z,0.00
2023-04-28T04:09:05.877Z,0.00
2023-04-28T04:10:05.858Z,0.00
2023-04-28T04:11:05.862Z,0.00
2023-04-28T04:12:05.871Z,0.00
2023-04-28T04:13:05.825Z,0.00
2023-04-28T04:14:05.816Z,0.00
2023-04-28T04:15:05.799Z,0.00
2023-04-28T04:16:05.870Z,0.00
2023-04-28T04:17:05.785Z,0.00
2023-04-28T04:18:05.978Z,0.00
2023-04-28T04:20:33.390Z,0.00
2023-04-28T04:20:39.282Z,0.00
2023-04-28T04:21:39.260Z,0.00
2023-04-28T04:22:39.231Z,0.00
2023-04-28T04:23:39.252Z,0.00
2023-04-28T04:24:39.201Z,0.00
2023-04-28T04:25:39.206Z,0.00
2023-04-28T04:26:39.267Z,0.00
2023-04-28T04:27:39.317Z,0.00
2023-04-28T04:28:39.146Z,0.00
2023-04-28T04:29:39.207Z,0.00
2023-04-28T04:30:39.978Z,0.00
2023-04-28T04:31:39.297Z,0.00
2023-04-28T04:32:39.168Z,0.00
2023-04-28T04:33:39.078Z,0.00
2023-04-28T04:34:39.068Z,0.00
2023-04-28T04:35:39.131Z,5.62
2023-04-28T04:38:36.899Z,5.62
2023-04-28T04:38:42.771Z,5.62
2023-04-28T04:41:17.088Z,5.62
2023-04-28T04:41:56.898Z,11.25
2023-04-28T04:42:56.857Z,11.25
2023-04-28T04:43:56.853Z,11.25
2023-04-28T04:44:56.852Z,11.25
2023-04-28T04:45:56.851Z,5.62
2023-04-28T04:46:56.911Z,11.25
2023-04-28T04:47:56.991Z,11.25
2023-04-28T04:48:57.417Z,11.25
2023-04-28T04:49:56.774Z,11.25
2023-04-28T04:50:56.836Z,11.25
2023-04-28T04:51:56.761Z,11.25
2023-04-28T04:52:56.722Z,11.25
2023-04-28T04:53:56.706Z,11.25
2023-04-28T04:54:56.726Z,11.25
2023-04-28T04:55:56.714Z,11.25
2023-04-28T04:56:56.673Z,11.25
2023-04-28T04:57:56.675Z,11.25
2023-04-28T04:58:56.642Z,11.25
2023-04-28T04:59:56.645Z,11.25
2023-04-28T05:00:56.614Z,11.25
2023-04-28T05:01:56.663Z,16.88
2023-04-28T05:02:56.788Z,11.25
2023-04-28T05:03:56.802Z,11.25
2023-04-28T05:05:08.114Z,11.25
2023-04-28T05:05:56.559Z,11.25
2023-04-28T05:06:56.553Z,11.25
2023-04-28T05:07:56.549Z,16.88
2023-04-28T05:08:56.535Z,16.88
2023-04-28T05:09:56.693Z,16.88
2023-04-28T05:10:56.534Z,16.88
2023-04-28T05:11:56.495Z,16.88
2023-04-28T05:12:56.476Z,11.25
2023-04-28T05:13:56.473Z,11.25
2023-04-28T05:14:56.450Z,5.62
2023-04-28T05:15:56.550Z,5.62
2023-04-28T05:16:56.469Z,5.62
2023-04-28T05:17:56.454Z,11.25
2023-04-28T05:18:56.410Z,11.25
2023-04-28T05:19:56.372Z,16.88
2023-04-28T05:20:56.380Z,22.50
2023-04-28T05:21:56.391Z,28.12
2023-04-28T05:22:56.375Z,22.50
2023-04-28T05:23:56.333Z,22.50
2023-04-28T05:24:59.074Z,22.50
2023-04-28T05:25:56.407Z,33.75
2023-04-28T05:26:56.304Z,45.00
2023-04-28T05:27:56.288Z,45.00
2023-04-28T05:28:56.407Z,39.38
2023-04-28T05:29:56.254Z,45.00
2023-04-28T05:30:56.322Z,50.62
2023-04-28T05:31:56.371Z,61.88
2023-04-28T05:32:56.437Z,67.50
2023-04-28T05:33:56.210Z,61.88
2023-04-28T05:34:56.177Z,61.88
2023-04-28T05:35:56.203Z,67.50
2023-04-28T05:36:56.174Z,67.50
2023-04-28T05:37:56.159Z,73.12
2023-04-28T05:38:56.136Z,73.12
2023-04-28T05:39:56.139Z,78.75
2023-04-28T05:40:56.137Z,67.50
2023-04-28T05:41:56.085Z,61.88
2023-04-28T05:42:56.082Z,61.88
2023-04-28T05:43:56.074Z,67.50
2023-04-28T05:44:56.370Z,67.50
2023-04-28T05:45:56.116Z,61.88
2023-04-28T05:46:56.107Z,50.62
2023-04-28T05:47:56.279Z,56.25
2023-04-28T05:48:56.001Z,56.25
2023-04-28T05:49:55.977Z,56.25
2023-04-28T05:50:55.979Z,56.25
2023-04-28T05:51:55.991Z,50.62
2023-04-28T05:52:55.942Z,56.25
2023-04-28T05:53:55.943Z,50.62
2023-04-28T05:54:55.914Z,50.62
2023-04-28T05:55:55.928Z,45.00
2023-04-28T05:56:55.897Z,45.00
2023-04-28T05:57:55.884Z,45.00
2023-04-28T05:58:55.858Z,50.62
2023-04-28T05:59:55.858Z,39.38
2023-04-28T06:00:55.852Z,39.38
2023-04-28T06:01:55.839Z,33.75
2023-04-28T06:02:55.963Z,33.75
2023-04-28T06:03:55.964Z,45.00
2023-04-28T06:04:56.212Z,56.25
2023-04-28T06:05:55.800Z,73.12
2023-04-28T06:06:55.806Z,106.88
2023-04-28T06:07:55.769Z,95.62
2023-04-28T06:08:55.756Z,106.88
2023-04-28T06:09:55.757Z,95.62
2023-04-28T06:10:55.721Z,106.88
2023-04-28T06:11:55.692Z,101.25
2023-04-28T06:12:55.709Z,129.38
2023-04-28T06:13:55.680Z,135.00
2023-04-28T06:14:55.673Z,168.75
2023-04-28T06:15:55.691Z,163.12
2023-04-28T06:16:55.630Z,236.25
2023-04-28T06:17:55.709Z,213.75
2023-04-28T06:18:55.628Z,213.75
2023-04-28T06:19:55.593Z,230.62
2023-04-28T06:20:55.587Z,241.88
2023-04-28T06:21:55.572Z,213.75
2023-04-28T06:22:55.602Z,191.25
2023-04-28T06:23:55.578Z,157.50
2023-04-28T06:24:55.522Z,135.00
2023-04-28T06:25:55.513Z,135.00
2023-04-28T06:26:55.505Z,140.62
2023-04-28T06:27:55.526Z,151.88
2023-04-28T06:28:55.470Z,163.12
2023-04-28T06:29:55.491Z,168.75
2023-04-28T06:30:55.469Z,157.50
2023-04-28T06:31:55.443Z,157.50
2023-04-28T06:32:55.458Z,163.12
2023-04-28T06:33:55.409Z,157.50
2023-04-28T06:34:57.808Z,151.88
2023-04-28T06:35:55.401Z,135.00
2023-04-28T06:36:55.391Z,140.62
2023-04-28T06:37:55.372Z,146.25
2023-04-28T06:38:55.351Z,112.50
2023-04-28T06:39:55.321Z,129.38
2023-04-28T06:40:55.335Z,129.38
2023-04-28T06:41:55.340Z,146.25
2023-04-28T06:42:55.303Z,129.38
2023-04-28T06:43:55.270Z,118.12
2023-04-28T06:44:55.273Z,112.50
2023-04-28T06:45:55.306Z,140.62
2023-04-28T06:46:55.311Z,151.88
2023-04-28T06:47:55.263Z,129.38
2023-04-28T06:48:55.222Z,135.00
2023-04-28T06:49:55.211Z,135.00
2023-04-28T06:50:55.188Z,196.88
2023-04-28T06:51:55.193Z,202.50
2023-04-28T06:52:55.191Z,236.25
2023-04-28T06:53:55.158Z,253.12
2023-04-28T06:54:55.140Z,286.88
2023-04-28T06:55:55.143Z,281.25
2023-04-28T06:56:55.131Z,303.75
2023-04-28T06:57:55.143Z,292.50
2023-04-28T06:58:55.207Z,292.50
2023-04-28T06:59:55.120Z,281.25
2023-04-28T07:02:07.680Z,275.62
2023-04-28T07:03:07.733Z,331.88
2023-04-28T07:04:07.639Z,337.50
2023-04-28T07:05:07.574Z,371.25
2023-04-28T07:06:07.583Z,405.00
2023-04-28T07:07:07.552Z,371.25
2023-04-28T07:09:35.277Z,371.25
2023-04-28T07:09:41.131Z,354.38
2023-04-28T07:10:41.186Z,371.25
2023-04-28T07:11:41.131Z,371.25
2023-04-28T07:12:41.128Z,371.25
2023-04-28T07:13:41.101Z,382.50
2023-04-28T07:14:41.081Z,337.50
2023-04-28T07:15:41.055Z,343.12
2023-04-28T07:16:41.111Z,320.62
2023-04-28T07:17:41.139Z,371.25
2023-04-28T07:18:41.071Z,399.38
2023-04-28T07:19:41.014Z,466.88
2023-04-28T07:20:41.002Z,399.38
2023-04-28T07:21:40.986Z,427.50
2023-04-28T07:22:40.992Z,466.88
2023-04-28T07:23:40.969Z,427.50
2023-04-28T07:24:40.973Z,410.62
2023-04-28T07:25:40.944Z,371.25
2023-04-28T07:26:40.921Z,421.88
2023-04-28T07:27:40.919Z,405.00
2023-04-28T07:28:40.900Z,444.38
2023-04-28T07:29:40.914Z,388.12
2023-04-28T07:30:40.911Z,337.50
2023-04-28T07:31:40.885Z,303.75
2023-04-28T07:32:40.983Z,360.00
2023-04-28T07:33:40.839Z,427.50
2023-04-28T07:34:40.810Z,382.50
2023-04-28T07:35:40.800Z,371.25
2023-04-28T07:36:40.821Z,348.75
2023-04-28T07:37:40.784Z,365.62
2023-04-28T07:38:40.779Z,433.12
2023-04-28T07:39:40.759Z,399.38
2023-04-28T07:40:40.733Z,427.50
2023-04-28T07:41:40.726Z,466.88
2023-04-28T07:42:40.752Z,382.50
2023-04-28T07:43:40.702Z,348.75
2023-04-28T07:44:40.687Z,348.75
2023-04-28T07:45:40.722Z,354.38
2023-04-28T07:46:40.657Z,343.12
2023-04-28T07:47:40.661Z,343.12
2023-04-28T07:48:40.690Z,320.62
2023-04-28T07:49:40.607Z,416.25
2023-04-28T07:50:40.604Z,315.00
2023-04-28T07:51:40.596Z,292.50
2023-04-28T07:52:40.583Z,331.88
2023-04-28T07:53:40.668Z,303.75
2023-04-28T07:54:40.593Z,320.62
2023-04-28T07:55:40.544Z,264.38
2023-04-28T07:56:40.523Z,292.50
2023-04-28T07:57:40.501Z,230.62
2023-04-28T07:58:40.489Z,219.38
2023-04-28T07:59:40.500Z,230.62
2023-04-28T08:00:41.156Z,185.62
2023-04-28T08:01:40.453Z,196.88
2023-04-28T08:02:40.557Z,180.00
2023-04-28T08:03:40.729Z,168.75
2023-04-28T08:04:41.375Z,157.50
2023-04-28T08:05:40.418Z,168.75
2023-04-28T08:06:40.411Z,157.50
2023-04-28T08:07:40.392Z,157.50
2023-04-28T08:08:40.364Z,140.62
2023-04-28T08:09:41.743Z,135.00
2023-04-28T08:10:40.338Z,140.62
2023-04-28T08:11:40.346Z,135.00
2023-04-28T08:12:40.323Z,151.88
2023-04-28T08:13:40.305Z,129.38
2023-04-28T08:14:40.296Z,90.00
2023-04-28T08:15:40.326Z,73.12
2023-04-28T08:16:40.260Z,95.62
2023-04-28T08:17:40.306Z,84.38
2023-04-28T08:18:40.247Z,73.12
2023-04-28T08:19:40.254Z,73.12
2023-04-28T08:20:40.244Z,84.38
2023-04-28T08:21:40.197Z,112.50
2023-04-28T08:22:40.208Z,106.88
2023-04-28T08:23:40.460Z,118.12
2023-04-28T08:24:40.171Z,106.88
2023-04-28T08:25:40.164Z,118.12
2023-04-28T08:26:40.146Z,129.38
2023-04-28T08:27:40.130Z,135.00
2023-04-28T08:28:40.138Z,135.00
2023-04-28T08:29:40.102Z,146.25
2023-04-28T08:30:40.102Z,157.50
2023-04-28T08:31:40.158Z,163.12
2023-04-28T08:32:40.103Z,157.50
2023-04-28T08:33:40.054Z,174.38
2023-04-28T08:34:40.025Z,180.00
2023-04-28T08:35:40.041Z,208.12
2023-04-28T08:36:40.041Z,208.12
2023-04-28T08:37:39.992Z,208.12
2023-04-28T08:38:40.011Z,208.12
2023-04-28T08:39:39.970Z,219.38
2023-04-28T08:40:39.980Z,230.62
2023-04-28T08:41:39.934Z,225.00
2023-04-28T08:42:39.926Z,275.62
2023-04-28T08:43:39.939Z,292.50
2023-04-28T08:44:39.920Z,331.88
2023-04-28T08:45:39.896Z,315.00
2023-04-28T08:46:39.898Z,331.88
2023-04-28T08:47:39.903Z,331.88
2023-04-28T08:48:39.875Z,298.12
2023-04-28T08:49:39.850Z,303.75
2023-04-28T08:50:39.839Z,281.25
2023-04-28T08:51:42.012Z,286.88
2023-04-28T08:52:39.819Z,326.25
2023-04-28T08:54:05.993Z,376.88
2023-04-28T08:54:39.805Z,337.50
2023-04-28T08:55:39.771Z,376.88
2023-04-28T08:56:39.754Z,382.50
2023-04-28T08:57:41.371Z,466.88
2023-04-28T08:58:39.728Z,573.75
2023-04-28T08:59:39.734Z,534.38
2023-04-28T09:00:39.709Z,545.62
2023-04-28T09:01:39.714Z,523.12
2023-04-28T09:02:39.790Z,478.12
2023-04-28T09:03:39.756Z,495.00
2023-04-28T09:04:39.905Z,421.88
2023-04-28T09:05:39.782Z,540.00
2023-04-28T09:06:39.635Z,466.88
2023-04-28T09:07:39.627Z,427.50
2023-04-28T09:08:39.595Z,365.62
2023-04-28T09:09:39.603Z,466.88
2023-04-28T09:10:39.607Z,483.75
2023-04-28T09:11:39.554Z,568.12
2023-04-28T09:12:39.563Z,472.50
2023-04-28T09:13:39.528Z,556.88
2023-04-28T09:14:39.530Z,511.88
2023-04-28T09:15:39.519Z,545.62
2023-04-28T09:16:39.559Z,523.12
2023-04-28T09:17:39.509Z,500.62
2023-04-28T09:18:39.471Z,545.62
2023-04-28T09:19:39.521Z,489.38
2023-04-28T09:20:39.445Z,382.50
2023-04-28T09:21:39.453Z,348.75
2023-04-28T09:22:39.513Z,393.75
2023-04-28T09:23:39.400Z,495.00
2023-04-28T09:24:39.408Z,528.75
2023-04-28T09:25:39.394Z,585.00
2023-04-28T09:26:39.371Z,731.25
2023-04-28T09:27:39.362Z,787.50
2023-04-28T09:28:39.375Z,877.50
2023-04-28T09:29:39.344Z,990.00
2023-04-28T09:30:39.328Z,1108.12
2023-04-28T09:31:39.489Z,1186.88
2023-04-28T09:32:39.368Z,1288.12
2023-04-28T09:33:39.283Z,1395.00
2023-04-28T09:34:39.289Z,1468.12
2023-04-28T09:35:39.263Z,1524.38
2023-04-28T09:36:39.272Z,1428.75
2023-04-28T09:37:39.258Z,1276.88
2023-04-28T09:38:39.232Z,1260.00
2023-04-28T09:39:39.244Z,1288.12
2023-04-28T09:40:39.226Z,1226.25
2023-04-28T09:41:39.198Z,1130.62
2023-04-28T09:42:39.173Z,1068.75
2023-04-28T09:43:39.158Z,1046.25
2023-04-28T09:44:39.169Z,871.88
2023-04-28T09:45:39.273Z,866.25
2023-04-28T09:46:39.127Z,618.75
2023-04-28T09:47:39.255Z,450.00
2023-04-28T09:48:39.139Z,511.88
2023-04-28T09:49:39.132Z,736.88
2023-04-28T09:50:39.105Z,624.38
2023-04-28T09:51:39.067Z,613.12
2023-04-28T09:52:39.074Z,658.12
2023-04-28T09:53:39.058Z,562.50
2023-04-28T09:54:39.025Z,444.38
2023-04-28T09:55:39.027Z,433.12
2023-04-28T09:56:39.815Z,376.88
2023-04-28T09:57:39.000Z,376.88
2023-04-28T09:58:38.998Z,506.25
2023-04-28T09:59:38.958Z,635.62
2023-04-28T10:00:38.945Z,573.75
2023-04-28T10:01:39.065Z,433.12
2023-04-28T10:03:38.988Z,607.50
2023-04-28T10:04:39.100Z,669.38
2023-04-28T10:05:38.943Z,601.88
2023-04-28T10:06:38.888Z,590.62
2023-04-28T10:07:39.152Z,455.62
2023-04-28T10:08:38.852Z,686.25
2023-04-28T10:09:38.859Z,860.62
2023-04-28T10:10:38.820Z,877.50
2023-04-28T10:11:38.813Z,787.50
2023-04-28T10:12:39.214Z,731.25
2023-04-28T10:13:38.779Z,821.25
2023-04-28T10:14:38.766Z,883.12
2023-04-28T10:15:38.791Z,871.88
2023-04-28T10:16:38.747Z,888.75
2023-04-28T10:17:38.755Z,950.62
2023-04-28T10:18:38.737Z,978.75
2023-04-28T10:19:38.708Z,905.62
2023-04-28T10:20:38.688Z,956.25
2023-04-28T10:21:38.678Z,1001.25
2023-04-28T10:22:38.684Z,950.62
2023-04-28T10:23:38.654Z,1130.62
2023-04-28T10:24:38.663Z,1350.00
2023-04-28T10:25:38.660Z,1186.88
2023-04-28T10:26:38.618Z,815.62
2023-04-28T10:27:38.630Z,838.12
2023-04-28T10:28:38.600Z,894.38
2023-04-28T10:29:38.570Z,675.00
2023-04-28T10:30:38.635Z,585.00
2023-04-28T10:31:38.564Z,691.88
2023-04-28T10:32:38.585Z,714.38
2023-04-28T10:33:38.515Z,725.62
2023-04-28T10:34:38.515Z,596.25
2023-04-28T10:35:38.520Z,922.50
2023-04-28T10:36:38.493Z,871.88
2023-04-28T10:37:38.526Z,933.75
2023-04-28T10:38:38.478Z,1006.88
2023-04-28T10:39:38.467Z,866.25
2023-04-28T10:40:38.436Z,843.75
2023-04-28T10:41:38.444Z,742.50
2023-04-28T10:42:38.432Z,736.88
2023-04-28T10:43:38.407Z,742.50
2023-04-28T10:44:38.387Z,697.50
2023-04-28T10:45:38.381Z,686.25
2023-04-28T10:46:38.397Z,641.25
2023-04-28T10:47:38.379Z,630.00
2023-04-28T10:48:38.344Z,753.75
2023-04-28T10:49:38.327Z,1018.12
2023-04-28T10:50:39.048Z,1023.75
2023-04-28T10:51:38.290Z,1125.00
2023-04-28T10:52:38.292Z,1366.88
2023-04-28T10:53:38.283Z,1102.50
2023-04-28T10:54:38.279Z,1192.50
2023-04-28T10:55:38.324Z,787.50
2023-04-28T10:56:39.849Z,843.75
2023-04-28T10:57:38.222Z,613.12
2023-04-28T10:58:38.262Z,793.12
2023-04-28T10:59:38.268Z,1035.00
2023-04-28T11:00:38.180Z,984.38
2023-04-28T11:01:38.217Z,961.88
2023-04-28T11:02:39.698Z,1158.75
2023-04-28T11:03:38.261Z,1006.88
2023-04-28T11:04:38.306Z,849.38
2023-04-28T11:05:38.139Z,714.38
2023-04-28T11:06:38.135Z,607.50
2023-04-28T11:07:38.086Z,590.62
2023-04-28T11:08:38.069Z,556.88
2023-04-28T11:09:38.089Z,877.50
2023-04-28T11:10:38.041Z,894.38
2023-04-28T11:11:38.060Z,956.25
2023-04-28T11:12:38.017Z,1001.25
2023-04-28T11:13:38.364Z,928.12
2023-04-28T11:14:38.023Z,922.50
2023-04-28T11:15:37.994Z,1068.75
2023-04-28T11:16:37.972Z,770.62
2023-04-28T11:17:37.969Z,708.75
2023-04-28T11:18:37.934Z,849.38
2023-04-28T11:19:37.980Z,697.50
2023-04-28T11:20:37.923Z,776.25
2023-04-28T11:21:37.898Z,725.62
2023-04-28T11:22:37.910Z,781.88
2023-04-28T11:23:37.883Z,720.00
2023-04-28T11:24:37.882Z,871.88
2023-04-28T11:25:37.867Z,1006.88
2023-04-28T11:26:37.846Z,798.75
2023-04-28T11:27:37.837Z,995.62
2023-04-28T11:28:37.867Z,1203.75
2023-04-28T11:29:37.830Z,1108.12
2023-04-28T11:30:37.799Z,1057.50
2023-04-28T11:31:37.781Z,984.38
2023-04-28T11:32:37.794Z,883.12
2023-04-28T11:33:37.758Z,849.38
2023-04-28T11:34:37.743Z,860.62
2023-04-28T11:35:37.776Z,776.25
2023-04-28T11:36:37.706Z,838.12
2023-04-28T11:37:37.714Z,736.88
2023-04-28T11:38:37.707Z,793.12
2023-04-28T11:39:37.688Z,770.62
2023-04-28T11:40:37.686Z,714.38
2023-04-28T11:41:37.681Z,815.62
2023-04-28T11:42:37.653Z,871.88
2023-04-28T11:43:46.936Z,939.38
2023-04-28T11:44:37.619Z,939.38
2023-04-28T11:45:37.629Z,708.75
2023-04-28T11:46:37.619Z,759.38
2023-04-28T11:47:37.581Z,652.50
2023-04-28T11:48:37.570Z,832.50
2023-04-28T11:49:38.957Z,759.38
2023-04-28T11:50:37.524Z,742.50
2023-04-28T11:51:37.516Z,596.25
2023-04-28T11:52:37.524Z,506.25
2023-04-28T11:53:37.491Z,573.75
2023-04-28T11:54:37.497Z,556.88
2023-04-28T11:55:38.777Z,523.12
2023-04-28T11:56:37.445Z,590.62
2023-04-28T11:57:37.486Z,596.25
2023-04-28T11:58:37.461Z,652.50
2023-04-28T11:59:38.341Z,483.75
2023-04-28T12:00:37.405Z,433.12
2023-04-28T12:01:37.417Z,433.12
2023-04-28T12:02:37.459Z,421.88
2023-04-28T12:03:37.556Z,483.75
2023-04-28T12:04:37.366Z,511.88
2023-04-28T12:05:38.853Z,607.50
2023-04-28T12:06:37.325Z,652.50
2023-04-28T12:07:37.377Z,568.12
2023-04-28T12:08:37.302Z,618.75
2023-04-28T12:09:37.321Z,663.75
2023-04-28T12:10:37.283Z,776.25
2023-04-28T12:11:38.219Z,821.25
2023-04-28T12:13:37.227Z,843.75
2023-04-28T12:14:37.714Z,798.75
2023-04-28T12:15:37.299Z,720.00
2023-04-28T12:16:37.189Z,765.00
2023-04-28T12:17:37.200Z,787.50
2023-04-28T12:18:37.196Z,905.62
2023-04-28T12:19:37.158Z,748.12
2023-04-28T12:20:37.222Z,697.50
2023-04-28T12:21:38.494Z,641.25
2023-04-28T12:22:37.107Z,568.12
2023-04-28T12:23:37.110Z,568.12
2023-04-28T12:24:37.093Z,658.12
2023-04-28T12:25:37.126Z,568.12
2023-04-28T12:26:37.086Z,720.00
2023-04-28T12:27:38.659Z,967.50
2023-04-28T12:28:37.041Z,922.50
2023-04-28T12:29:37.082Z,770.62
2023-04-28T12:30:37.072Z,720.00
2023-04-28T12:31:37.074Z,855.00
2023-04-28T12:32:37.092Z,945.00
2023-04-28T12:33:38.409Z,916.88
2023-04-28T12:34:36.996Z,680.62
2023-04-28T12:35:36.961Z,686.25
2023-04-28T12:36:36.965Z,1091.25
2023-04-28T12:37:37.434Z,1237.50
2023-04-28T12:38:36.955Z,1203.75
2023-04-28T12:39:39.509Z,1333.12
2023-04-28T12:40:36.888Z,1445.62
2023-04-28T12:41:36.896Z,1445.62
2023-04-28T12:42:36.860Z,1395.00
2023-04-28T12:43:36.866Z,990.00
2023-04-28T12:44:36.851Z,675.00
2023-04-28T12:45:38.739Z,720.00
2023-04-28T12:46:36.914Z,596.25
2023-04-28T12:47:36.884Z,641.25
2023-04-28T12:48:36.878Z,843.75
2023-04-28T12:49:36.785Z,871.88
2023-04-28T12:50:36.760Z,781.88
2023-04-28T12:51:38.952Z,714.38
2023-04-28T12:52:36.771Z,826.88
2023-04-28T12:53:36.722Z,855.00
2023-04-28T12:54:36.746Z,697.50